Time;durP1;ratioP1;P1;durP2;ratioP2;P2;SDS_P1;SDS_P2;PMS_P1;PMS_P2;Temp;Humidity;BMP_temperature;BMP_pressure;BME280_temperature;BME280_humidity;BME280_pressure;Samples;Min_cycle;Max_cycle;Signal;HPM_P1;HPM_P2
2023/07/11 00:00:48;;;;;;;6.30;5.70;;;;;;;24.18;nan;99668.50;4903196;29;20506;-76
2023/07/11 00:03:13;;;;;;;8.03;7.43;;;;;;;24.15;nan;99662.66;4897835;29;20973;-77
2023/07/11 00:05:39;;;;;;;7.90;7.10;;;;;;;24.14;nan;99660.97;4902140;29;20988;-76
2023/07/11 00:08:04;;;;;;;7.13;6.30;;;;;;;24.18;nan;99660.44;4901994;29;20226;-76
2023/07/11 00:10:30;;;;;;;7.60;6.90;;;;;;;24.24;nan;99662.38;4903093;29;20698;-76
2023/07/11 00:12:56;;;;;;;9.20;6.60;;;;;;;24.30;nan;99652.75;4903023;29;20303;-76
2023/07/11 00:15:21;;;;;;;6.13;5.47;;;;;;;24.36;nan;99649.34;4903644;29;20776;-76
2023/07/11 00:17:48;;;;;;;6.50;5.83;;;;;;;24.40;nan;99653.31;4903760;29;20727;-76
2023/07/11 00:20:14;;;;;;;7.47;6.77;;;;;;;24.43;nan;99658.31;4903007;29;20232;-76
2023/07/11 00:22:42;;;;;;;8.87;6.87;;;;;;;24.47;nan;99656.13;4904142;29;20609;-76
2023/07/11 00:25:09;;;;;;;6.10;5.60;;;;;;;24.46;nan;99655.28;4906370;29;20465;-76
2023/07/11 00:27:36;;;;;;;6.80;5.63;;;;;;;24.49;nan;99664.81;4904941;29;20502;-76
2023/07/11 00:30:02;;;;;;;8.70;6.23;;;;;;;24.51;nan;99668.16;4906699;29;20604;-76
2023/07/11 00:32:28;;;;;;;6.80;6.10;;;;;;;24.53;nan;99660.75;4906865;29;20469;-76
2023/07/11 00:34:53;;;;;;;8.40;6.07;;;;;;;24.54;nan;99650.84;4907442;29;20829;-76
2023/07/11 00:37:20;;;;;;;6.70;5.97;;;;;;;24.53;nan;99659.91;4907159;29;20228;-76
2023/07/11 00:39:46;;;;;;;6.03;5.50;;;;;;;24.48;nan;99660.47;4891183;29;20484;-76
2023/07/11 00:42:11;;;;;;;6.63;4.83;;;;;;;24.38;nan;99649.97;4892209;29;20225;-76
2023/07/11 00:44:51;;;;;;;6.47;5.87;;;;;;;24.26;nan;99660.34;4908016;29;20220;-76
2023/07/11 00:47:17;;;;;;;8.20;6.10;;;;;;;24.14;nan;99655.63;4911029;29;20210;-76
2023/07/11 00:49:43;;;;;;;7.40;6.10;;;;;;;24.09;nan;99656.19;4905642;29;20463;-76
2023/07/11 00:52:09;;;;;;;8.00;6.27;;;;;;;24.03;nan;99656.91;4909180;29;20479;-76
2023/07/11 00:54:36;;;;;;;6.17;5.57;;;;;;;23.93;nan;99654.50;4910536;29;20274;-76
2023/07/11 00:57:06;;;;;;;6.93;6.30;;;;;;;23.88;nan;99650.72;4908925;29;20617;-76
2023/07/11 00:59:32;;;;;;;6.63;5.73;;;;;;;23.81;nan;99650.59;4908767;29;20474;-76
2023/07/11 01:02:03;;;;;;;7.13;6.20;;;;;;;23.75;nan;99646.78;4907842;29;20881;-76
2023/07/11 01:04:29;;;;;;;7.65;6.85;;;;;;;23.72;nan;99646.31;4909903;29;20429;-76
2023/07/11 01:06:54;;;;;;;7.35;6.55;;;;;;;23.72;nan;99647.16;4900652;29;20454;-76
2023/07/11 01:09:20;;;;;;;6.53;6.00;;;;;;;23.71;nan;99641.94;4913433;29;20233;-76
2023/07/11 01:11:58;;;;;;;6.90;5.57;;;;;;;23.67;nan;99637.97;4913992;29;20240;-77
2023/07/11 01:14:24;;;;;;;6.80;5.03;;;;;;;23.63;nan;99635.63;4913727;29;20333;-76
2023/07/11 01:16:50;;;;;;;7.63;5.90;;;;;;;23.63;nan;99632.13;4914666;29;20764;-76
2023/07/11 01:19:15;;;;;;;6.33;5.70;;;;;;;23.59;nan;99636.19;4911972;29;21060;-77
2023/07/11 01:21:41;;;;;;;6.20;5.60;;;;;;;23.52;nan;99630.72;4892753;29;20224;-76
2023/07/11 01:24:07;;;;;;;6.70;6.10;;;;;;;23.50;nan;99622.00;4908843;29;20218;-76
2023/07/11 01:26:32;;;;;;;7.43;5.60;;;;;;;23.50;nan;99615.81;4907435;29;20561;-76
2023/07/11 01:28:58;;;;;;;5.93;5.30;;;;;;;23.50;nan;99618.50;4895840;29;20259;-76
2023/07/11 01:31:24;;;;;;;6.13;5.63;;;;;;;23.52;nan;99619.13;4907607;29;20508;-76
2023/07/11 01:33:49;;;;;;;6.27;5.67;;;;;;;23.54;nan;99617.94;4909069;29;20477;-76
2023/07/11 01:36:15;;;;;;;7.60;6.90;;;;;;;23.59;nan;99606.69;4907803;29;20632;-76
2023/07/11 01:38:42;;;;;;;6.87;5.93;;;;;;;23.62;nan;99614.34;4909250;29;20470;-75
2023/07/11 01:41:08;;;;;;;7.60;6.77;;;;;;;23.61;nan;99602.81;4893860;29;20724;-76
2023/07/11 01:43:34;;;;;;;7.53;6.83;;;;;;;23.64;nan;99597.06;4909458;29;20512;-76
2023/07/11 01:45:59;;;;;;;8.97;7.27;;;;;;;23.63;nan;99599.94;4909294;29;20847;-77
2023/07/11 01:48:28;;;;;;;6.70;6.03;;;;;;;23.57;nan;99589.94;4890604;29;20510;-76
2023/07/11 01:50:54;;;;;;;8.10;6.73;;;;;;;23.51;nan;99591.50;4905816;29;20542;-76
2023/07/11 01:53:20;;;;;;;8.53;6.70;;;;;;;23.45;nan;99586.88;4904298;29;20463;-76
2023/07/11 01:56:04;;;;;;;9.90;6.63;;;;;;;23.37;nan;99584.25;4894180;29;20612;-76
2023/07/11 01:58:30;;;;;;;6.57;5.97;;;;;;;23.35;nan;99584.44;4892882;29;20496;-76
2023/07/11 02:00:57;;;;;;;7.43;6.50;;;;;;;23.38;nan;99575.19;4892372;29;20478;-76
2023/07/11 02:03:23;;;;;;;8.30;6.00;;;;;;;23.41;nan;99570.31;4898798;29;20555;-76
2023/07/11 02:05:48;;;;;;;6.60;6.00;;;;;;;23.43;nan;99570.13;4910590;29;21083;-76
2023/07/11 02:08:15;;;;;;;10.93;5.53;;;;;;;23.44;nan;99570.94;4900612;29;20986;-76
2023/07/11 02:10:41;;;;;;;8.53;5.70;;;;;;;23.40;nan;99567.81;4911335;29;20577;-76
2023/07/11 02:13:07;;;;;;;5.80;5.30;;;;;;;23.37;nan;99566.31;4910639;29;20245;-76
2023/07/11 02:15:39;;;;;;;7.60;5.77;;;;;;;23.34;nan;99560.50;4911876;29;20289;-76
2023/07/11 02:18:05;;;;;;;6.77;6.00;;;;;;;23.26;nan;99566.75;4911011;29;20480;-76
2023/07/11 02:20:30;;;;;;;6.97;5.77;;;;;;;23.23;nan;99566.31;4911096;29;20918;-76
2023/07/11 02:22:59;;;;;;;5.83;5.33;;;;;;;23.18;nan;99562.31;4901079;29;20422;-76
2023/07/11 02:25:25;;;;;;;6.17;5.57;;;;;;;23.16;nan;99556.28;4912609;29;20223;-76
2023/07/11 02:27:50;;;;;;;6.90;6.07;;;;;;;23.16;nan;99556.28;4911928;29;20957;-76
2023/07/11 02:30:16;;;;;;;7.20;6.50;;;;;;;23.18;nan;99559.63;4901413;29;20480;-76
2023/07/11 02:32:42;;;;;;;6.00;5.50;;;;;;;23.21;nan;99552.25;4914165;29;20206;-76
2023/07/11 02:35:08;;;;;;;7.17;6.53;;;;;;;23.23;nan;99548.38;4912769;29;20384;-76
2023/07/11 02:37:33;;;;;;;6.60;6.00;;;;;;;23.25;nan;99553.53;4912368;29;20830;-76
2023/07/11 02:39:58;;;;;;;6.10;5.40;;;;;;;23.22;nan;99548.53;4896867;29;20684;-76
2023/07/11 02:42:24;;;;;;;6.77;5.80;;;;;;;23.09;nan;99550.00;4913295;29;20211;-76
2023/07/11 02:44:49;;;;;;;5.30;4.80;;;;;;;22.95;nan;99558.75;4914156;29;20867;-76
2023/07/11 02:47:15;;;;;;;6.47;5.70;;;;;;;22.80;nan;99549.84;4913364;29;20326;-76
2023/07/11 02:49:41;;;;;;;6.33;5.80;;;;;;;22.63;nan;99543.75;4912880;29;20221;-76
2023/07/11 02:52:07;;;;;;;7.97;4.70;;;;;;;22.51;nan;99548.69;4910872;29;20571;-76
2023/07/11 02:54:33;;;;;;;7.03;5.70;;;;;;;22.44;nan;99550.38;4909591;29;20491;-76
2023/07/11 02:56:59;;;;;;;7.10;6.43;;;;;;;22.38;nan;99551.91;4908987;29;20926;-76
2023/07/11 02:59:24;;;;;;;6.47;5.87;;;;;;;22.34;nan;99545.28;4911033;29;20223;-76
2023/07/11 03:01:49;;;;;;;7.00;6.40;;;;;;;22.35;nan;99546.09;4909578;29;20802;-76
2023/07/11 03:04:15;;;;;;;7.68;6.88;;;;;;;22.37;nan;99550.25;4904609;29;20492;-76
2023/07/11 03:06:40;;;;;;;6.27;5.67;;;;;;;22.40;nan;99541.06;4909625;29;20808;-76
2023/07/11 03:09:06;;;;;;;7.43;6.73;;;;;;;22.44;nan;99539.69;4910687;29;20740;-76
2023/07/11 03:11:31;;;;;;;7.00;6.30;;;;;;;22.47;nan;99536.69;4912093;29;20870;-76
2023/07/11 03:13:56;;;;;;;6.07;5.47;;;;;;;22.50;nan;99536.31;4911884;29;20590;-76
2023/07/11 03:16:22;;;;;;;9.13;7.50;;;;;;;22.48;nan;99536.47;4910804;29;20250;-76
2023/07/11 03:18:47;;;;;;;7.43;6.00;;;;;;;22.45;nan;99536.00;4912874;29;20301;-76
2023/07/11 03:21:12;;;;;;;8.40;5.83;;;;;;;22.44;nan;99528.97;4911365;29;20923;-76
2023/07/11 03:23:38;;;;;;;7.63;6.83;;;;;;;22.43;nan;99520.13;4910413;29;20229;-76
2023/07/11 03:26:03;;;;;;;8.20;5.63;;;;;;;22.44;nan;99526.28;4910808;29;20795;-77
2023/07/11 03:28:29;;;;;;;7.37;6.10;;;;;;;22.41;nan;99523.97;4909262;29;20260;-77
2023/07/11 03:30:54;;;;;;;6.50;5.90;;;;;;;22.37;nan;99520.00;4912012;29;20709;-76
2023/07/11 03:33:19;;;;;;;6.13;5.53;;;;;;;22.32;nan;99525.88;4910565;29;20218;-76
2023/07/11 03:35:50;;;;;;;6.70;5.90;;;;;;;22.24;nan;99528.59;4912038;29;20723;-77
2023/07/11 03:38:15;;;;;;;6.73;6.10;;;;;;;22.16;nan;99524.06;4907396;29;20216;-76
2023/07/11 03:40:40;;;;;;;6.30;5.70;;;;;;;22.11;nan;99529.09;4907353;29;20994;-76
2023/07/11 03:43:06;;;;;;;7.13;6.47;;;;;;;22.07;nan;99522.44;4905146;29;20226;-75
2023/07/11 03:45:31;;;;;;;6.83;6.07;;;;;;;22.06;nan;99521.63;4904150;29;20227;-76
2023/07/11 03:47:57;;;;;;;8.37;6.37;;;;;;;22.09;nan;99521.28;4907661;29;20231;-76
2023/07/11 03:50:22;;;;;;;6.57;5.97;;;;;;;22.11;nan;99521.09;4907236;29;20519;-76
2023/07/11 03:52:47;;;;;;;6.93;6.33;;;;;;;22.06;nan;99518.94;4910953;29;20646;-76
2023/07/11 03:55:13;;;;;;;6.50;5.90;;;;;;;21.99;nan;99519.81;4910899;29;20210;-76
2023/07/11 03:57:38;;;;;;;6.17;5.63;;;;;;;21.94;nan;99520.31;4911330;29;20219;-76
2023/07/11 04:00:04;;;;;;;6.60;5.70;;;;;;;21.92;nan;99518.81;4911869;29;20217;-76
2023/07/11 04:02:38;;;;;;;13.60;6.20;;;;;;;21.90;nan;99518.16;4911069;29;20229;-76
2023/07/11 04:05:04;;;;;;;7.93;6.03;;;;;;;21.85;nan;99513.34;4910087;29;20971;-76
2023/07/11 04:07:29;;;;;;;7.40;6.33;;;;;;;21.81;nan;99515.50;4911963;29;20272;-76
2023/07/11 04:09:55;;;;;;;6.73;6.03;;;;;;;21.80;nan;99519.22;4907389;29;20800;-76
2023/07/11 04:12:20;;;;;;;6.53;5.83;;;;;;;21.79;nan;99514.03;4908861;29;20272;-76
2023/07/11 04:14:45;;;;;;;7.47;6.77;;;;;;;21.81;nan;99512.84;4914317;29;20835;-75
2023/07/11 04:17:11;;;;;;;8.27;7.07;;;;;;;21.87;nan;99520.19;4913646;29;20255;-76
2023/07/11 04:19:36;;;;;;;7.20;6.27;;;;;;;21.96;nan;99518.31;4913833;29;20224;-76
2023/07/11 04:22:01;;;;;;;9.60;6.60;;;;;;;22.05;nan;99513.75;4913564;29;20233;-76
2023/07/11 04:24:27;;;;;;;7.53;6.83;;;;;;;22.15;nan;99514.38;4913685;29;21191;-75
2023/07/11 04:26:52;;;;;;;6.63;5.47;;;;;;;22.23;nan;99510.88;4920661;29;20217;-76
2023/07/11 04:29:18;;;;;;;7.30;6.50;;;;;;;22.28;nan;99509.34;4917175;29;20306;-76
2023/07/11 04:31:43;;;;;;;7.37;6.53;;;;;;;22.39;nan;99501.94;4919946;29;20271;-76
2023/07/11 04:34:08;;;;;;;11.90;7.00;;;;;;;22.45;nan;99503.88;4921600;29;20285;-76
2023/07/11 04:36:34;;;;;;;8.70;7.13;;;;;;;22.48;nan;99501.69;4918273;29;20957;-76
2023/07/11 04:39:00;;;;;;;9.80;6.97;;;;;;;22.47;nan;99502.72;4919019;28;20518;-76
2023/07/11 04:41:25;;;;;;;11.50;7.40;;;;;;;22.50;nan;99501.53;4922805;29;20566;-76
2023/07/11 04:43:51;;;;;;;6.60;6.00;;;;;;;22.54;nan;99502.81;4920487;29;20748;-76
2023/07/11 04:46:16;;;;;;;8.27;7.40;;;;;;;22.64;nan;99514.13;4921864;29;20791;-76
2023/07/11 04:48:42;;;;;;;9.33;8.33;;;;;;;22.75;nan;99504.84;4918391;29;20213;-76
2023/07/11 04:51:10;;;;;;;7.57;6.80;;;;;;;22.89;nan;99509.41;4919260;29;20646;-78
2023/07/11 04:53:36;;;;;;;14.03;7.60;;;;;;;23.07;nan;99506.47;4919426;29;20747;-76
2023/07/11 04:56:04;;;;;;;9.13;6.83;;;;;;;23.28;nan;99499.59;4922416;29;20477;-76
2023/07/11 04:58:32;;;;;;;8.43;7.63;;;;;;;23.59;nan;99502.09;4921549;29;20686;-76
2023/07/11 05:01:05;;;;;;;7.80;6.47;;;;;;;23.99;nan;99506.19;4920360;29;21078;-76
2023/07/11 05:03:31;;;;;;;6.37;5.87;;;;;;;24.39;nan;99497.81;4921213;29;20834;-77
2023/07/11 05:05:57;;;;;;;8.23;6.90;;;;;;;24.71;nan;99497.34;4918474;29;20531;-76
2023/07/11 05:08:22;;;;;;;9.23;6.50;;;;;;;24.93;nan;99492.78;4915220;29;21442;-76
2023/07/11 05:10:53;;;;;;;10.50;6.53;;;;;;;25.08;nan;99491.84;4907950;29;20492;-76
2023/07/11 05:13:19;;;;;;;7.63;6.83;;;;;;;25.19;nan;99487.84;4912226;29;20221;-76
2023/07/11 05:15:45;;;;;;;8.00;6.20;;;;;;;25.50;nan;99488.28;4914277;29;20890;-77
2023/07/11 05:18:11;;;;;;;8.60;6.53;;;;;;;25.90;nan;99491.22;4924809;29;20551;-77
2023/07/11 05:20:36;;;;;;;8.23;7.40;;;;;;;26.18;nan;99492.97;4919879;29;20549;-77
2023/07/11 05:23:01;;;;;;;10.87;7.27;;;;;;;26.38;nan;99477.72;4924325;29;20211;-77
2023/07/11 05:25:27;;;;;;;7.80;7.00;;;;;;;26.65;nan;99484.03;4920464;29;20301;-77
2023/07/11 05:27:52;;;;;;;8.00;6.20;;;;;;;26.93;nan;99474.94;4923906;29;20693;-77
2023/07/11 05:30:17;;;;;;;8.40;7.03;;;;;;;27.17;nan;99468.09;4922488;29;20241;-77
2023/07/11 05:32:43;;;;;;;6.83;6.20;;;;;;;27.53;nan;99475.72;4923727;29;20404;-77
2023/07/11 05:35:08;;;;;;;7.80;7.10;;;;;;;27.80;nan;99475.66;4917787;29;20769;-77
2023/07/11 05:37:34;;;;;;;7.97;7.17;;;;;;;27.97;nan;99471.44;4927452;29;20211;-78
2023/07/11 05:39:59;;;;;;;7.27;6.57;;;;;;;28.22;nan;99468.84;4922861;29;20602;-77
2023/07/11 05:42:24;;;;;;;7.13;6.47;;;;;;;28.53;nan;99464.53;4921434;29;20220;-78
2023/07/11 05:44:50;;;;;;;7.70;6.90;;;;;;;28.81;nan;99455.19;4923318;29;20241;-77
2023/07/11 05:47:15;;;;;;;6.60;5.83;;;;;;;29.05;nan;99454.38;4926933;29;20373;-78
2023/07/11 05:49:41;;;;;;;8.13;7.20;;;;;;;29.24;nan;99463.34;4929878;29;20280;-78
2023/07/11 05:52:06;;;;;;;6.30;5.70;;;;;;;29.27;nan;99465.63;4925155;28;20235;-78
2023/07/11 05:54:31;;;;;;;9.57;7.00;;;;;;;29.44;nan;99459.66;4923662;29;20258;-77
2023/07/11 05:56:57;;;;;;;9.00;8.00;;;;;;;29.66;nan;99458.16;4923010;29;20701;-78
2023/07/11 05:59:22;;;;;;;8.37;7.20;;;;;;;29.87;nan;99451.47;4921193;29;20241;-78
2023/07/11 06:01:48;;;;;;;9.23;6.90;;;;;;;30.14;nan;99438.41;4923631;29;20297;-78
2023/07/11 06:04:16;;;;;;;9.30;7.37;;;;;;;30.42;nan;99435.09;4921280;29;20211;-77
2023/07/11 06:06:42;;;;;;;8.23;6.80;;;;;;;30.73;nan;99446.75;4922290;29;20785;-77
2023/07/11 06:09:09;;;;;;;9.80;7.60;;;;;;;31.01;nan;99446.09;4926590;29;20551;-78
2023/07/11 06:11:35;;;;;;;8.57;7.13;;;;;;;31.30;nan;99443.50;4919730;29;20234;-77
2023/07/11 06:14:00;;;;;;;7.97;7.17;;;;;;;31.60;nan;99442.53;4919678;29;20472;-78
2023/07/11 06:16:25;;;;;;;8.13;5.87;;;;;;;31.88;nan;99439.03;4921240;29;20289;-78
2023/07/11 06:18:52;;;;;;;8.10;7.33;;;;;;;31.98;nan;99449.31;4923019;29;20216;-77
2023/07/11 06:21:18;;;;;;;7.17;6.40;;;;;;;32.05;nan;99442.66;4918338;29;20230;-77
2023/07/11 06:23:44;;;;;;;9.63;7.10;;;;;;;32.05;nan;99444.53;4921412;29;20508;-77
2023/07/11 06:26:10;;;;;;;10.50;7.40;;;;;;;31.99;nan;99443.63;4916281;29;20353;-77
2023/07/11 06:28:35;;;;;;;7.37;6.43;;;;;;;31.93;nan;99431.84;4915207;29;20523;-77
2023/07/11 06:31:01;;;;;;;9.13;8.33;;;;;;;31.84;nan;99444.13;4916567;29;20479;-78
2023/07/11 06:33:29;;;;;;;8.37;7.60;;;;;;;31.80;nan;99444.84;4917180;29;20222;-77
2023/07/11 06:35:55;;;;;;;11.00;10.10;;;;;;;31.90;nan;99445.88;4915300;29;20220;-76
2023/07/11 06:38:21;;;;;;;7.37;6.63;;;;;;;31.65;nan;99442.63;4916037;29;20482;-76
2023/07/11 06:40:51;;;;;;;8.00;7.20;;;;;;;31.39;nan;99441.28;4904029;29;20822;-77
2023/07/11 06:43:17;;;;;;;8.13;7.33;;;;;;;31.25;nan;99437.94;4919668;29;20471;-77
2023/07/11 06:45:53;;;;;;;7.77;7.07;;;;;;;31.07;nan;99436.16;4918821;29;20497;-77
2023/07/11 06:48:19;;;;;;;7.17;6.57;;;;;;;30.99;nan;99448.19;4916463;29;20466;-77
2023/07/11 06:50:53;;;;;;;8.00;7.30;;;;;;;31.30;nan;99443.50;4917010;29;20929;-77
2023/07/11 06:53:19;;;;;;;8.33;7.53;;;;;;;31.46;nan;99442.78;4916630;29;20464;-77
2023/07/11 06:55:47;;;;;;;7.50;6.70;;;;;;;31.35;nan;99450.91;4919407;29;20900;-77
2023/07/11 06:58:12;;;;;;;9.20;7.40;;;;;;;31.14;nan;99436.06;4921869;29;21024;-77
2023/07/11 07:03:14;;;;;;;7.47;6.87;;;;;;;31.16;nan;99428.50;4933036;28;20843;-78
2023/07/11 07:05:50;;;;;;;8.73;7.73;;;;;;;31.56;nan;99433.22;4931677;29;21099;-75
2023/07/11 07:08:16;;;;;;;9.40;7.40;;;;;;;32.07;nan;99431.56;4934289;29;20218;-75
2023/07/11 07:10:43;;;;;;;8.60;7.70;;;;;;;32.57;nan;99423.53;4936726;28;20520;-75
2023/07/11 07:13:08;;;;;;;10.43;7.80;;;;;;;33.07;nan;99424.59;4948419;28;20305;-76
2023/07/11 07:15:33;;;;;;;7.70;6.73;;;;;;;33.50;nan;99423.84;4949912;28;20672;-76
2023/07/11 07:17:59;;;;;;;8.30;7.50;;;;;;;33.77;nan;99414.13;4950556;28;20205;-76
2023/07/11 07:20:24;;;;;;;10.33;8.37;;;;;;;33.84;nan;99409.31;4955064;28;20246;-76
2023/07/11 07:22:49;;;;;;;8.60;7.20;;;;;;;33.87;nan;99403.34;4949331;28;20211;-76
2023/07/11 07:25:15;;;;;;;11.50;8.67;;;;;;;33.95;nan;99399.34;4951940;28;20221;-77
2023/07/11 07:27:40;;;;;;;8.00;7.40;;;;;;;34.08;nan;99402.50;4953353;28;20230;-76
2023/07/11 07:30:06;;;;;;;7.90;7.20;;;;;;;34.22;nan;99402.09;4949881;28;20571;-76
2023/07/11 07:32:32;;;;;;;8.70;7.87;;;;;;;34.46;nan;99403.41;4942963;28;20717;-76
2023/07/11 07:34:57;;;;;;;9.00;7.70;;;;;;;34.61;nan;99397.28;4952415;28;20452;-76
2023/07/11 07:37:23;;;;;;;9.37;7.90;;;;;;;34.74;nan;99402.28;4961067;28;20207;-76
2023/07/11 07:39:48;;;;;;;8.63;7.73;;;;;;;34.95;nan;99400.53;4952163;28;20696;-76
2023/07/11 07:42:15;;;;;;;8.10;7.27;;;;;;;35.08;nan;99395.72;4952839;28;20295;-76
2023/07/11 07:44:40;;;;;;;7.77;6.97;;;;;;;34.87;nan;99383.84;4954903;28;20231;-76
2023/07/11 07:47:05;;;;;;;8.03;7.43;;;;;;;34.64;nan;99390.47;4954055;28;20464;-76
2023/07/11 07:49:31;;;;;;;9.10;8.20;;;;;;;34.51;nan;99384.38;4962313;28;20694;-77
2023/07/11 07:51:56;;;;;;;8.13;6.80;;;;;;;34.55;nan;99388.19;4953684;28;20223;-76
2023/07/11 07:54:22;;;;;;;8.60;7.53;;;;;;;34.71;nan;99391.91;4959760;28;20259;-77
2023/07/11 07:56:47;;;;;;;9.90;6.63;;;;;;;34.77;nan;99390.03;4950775;28;20208;-77
2023/07/11 07:59:13;;;;;;;8.03;7.23;;;;;;;34.95;nan;99394.25;4951660;28;20260;-77
2023/07/11 08:01:38;;;;;;;9.47;8.50;;;;;;;35.11;nan;99390.56;4959747;28;20658;-77
2023/07/11 08:04:04;;;;;;;9.93;7.90;;;;;;;35.07;nan;99388.63;4949866;28;20209;-76
2023/07/11 08:06:29;;;;;;;10.40;7.95;;;;;;;35.24;nan;99387.38;4946848;28;20444;-76
2023/07/11 08:08:54;;;;;;;9.00;8.20;;;;;;;35.22;nan;99380.53;4950147;28;20213;-76
2023/07/11 08:11:21;;;;;;;8.70;7.83;;;;;;;35.15;nan;99378.00;4959993;28;20311;-76
2023/07/11 08:13:47;;;;;;;8.70;7.83;;;;;;;35.02;nan;99376.53;4954252;28;20239;-76
2023/07/11 08:16:12;;;;;;;8.23;7.43;;;;;;;35.07;nan;99375.78;4925965;28;20921;-76
2023/07/11 08:18:38;;;;;;;8.43;7.40;;;;;;;35.16;nan;99368.75;4959237;28;20253;-76
2023/07/11 08:21:03;;;;;;;9.03;8.13;;;;;;;35.21;nan;99362.47;4956398;28;20248;-77
2023/07/11 08:23:29;;;;;;;10.73;7.80;;;;;;;35.23;nan;99371.22;4959314;28;20270;-76
2023/07/11 08:25:55;;;;;;;9.30;7.87;;;;;;;35.30;nan;99362.81;4952478;28;20246;-76
2023/07/11 08:28:21;;;;;;;7.00;6.30;;;;;;;35.27;nan;99355.97;4957512;28;20215;-76
2023/07/11 08:30:47;;;;;;;6.57;5.93;;;;;;;35.07;nan;99353.13;4966619;28;20533;-77
2023/07/11 08:33:12;;;;;;;7.10;6.27;;;;;;;34.86;nan;99355.69;4952644;28;20279;-76
2023/07/11 08:35:38;;;;;;;8.80;7.17;;;;;;;34.62;nan;99347.13;4961616;28;20447;-76
2023/07/11 08:38:10;;;;;;;8.13;7.33;;;;;;;34.51;nan;99348.91;4966995;28;20221;-77
2023/07/11 08:40:40;;;;;;;7.97;7.20;;;;;;;34.56;nan;99348.09;4962185;28;20238;-76
2023/07/11 08:43:06;;;;;;;7.80;6.87;;;;;;;34.69;nan;99341.41;4964509;28;20521;-77
2023/07/11 08:45:39;;;;;;;11.73;7.53;;;;;;;34.79;nan;99344.22;4965492;28;20850;-77
2023/07/11 08:48:20;;;;;;;8.60;7.07;;;;;;;34.68;nan;99337.88;4958057;28;20827;-77
2023/07/11 08:51:02;;;;;;;9.40;7.83;;;;;;;34.56;nan;99338.03;4960275;28;20471;-76
2023/07/11 08:53:33;;;;;;;8.97;7.30;;;;;;;34.57;nan;99331.53;4955836;28;20525;-75
2023/07/11 08:56:22;;;;;;;8.17;7.33;;;;;;;34.71;nan;99331.06;4967523;28;20458;-76
2023/07/11 08:58:50;;;;;;;8.30;7.27;;;;;;;34.72;nan;99321.78;4965200;28;20486;-76
2023/07/11 09:01:47;;;;;;;7.80;7.00;;;;;;;34.75;nan;99321.25;4959619;28;20492;-76
2023/07/11 09:04:17;;;;;;;7.73;7.03;;;;;;;34.76;nan;99321.00;4937926;28;20560;-76
2023/07/11 09:07:25;;;;;;;8.63;7.73;;;;;;;34.90;nan;99315.91;4954065;28;20465;-77
2023/07/11 09:09:51;;;;;;;8.90;7.40;;;;;;;34.93;nan;99317.28;4949923;28;20605;-77
2023/07/11 09:12:50;;;;;;;9.20;6.43;;;;;;;34.84;nan;99311.50;4949869;28;21036;-77
2023/07/11 09:15:26;;;;;;;7.37;6.67;;;;;;;34.95;nan;99310.47;4950345;28;20652;-77
2023/07/11 09:18:05;;;;;;;8.70;7.90;;;;;;;35.09;nan;99304.56;4948708;28;20616;-77
2023/07/11 09:20:57;;;;;;;8.43;7.13;;;;;;;35.08;nan;99305.63;4949906;28;20251;-77
2023/07/11 09:23:22;;;;;;;12.10;7.80;;;;;;;35.12;nan;99306.75;4947241;28;20470;-76
2023/07/11 09:25:49;;;;;;;7.77;6.97;;;;;;;35.19;nan;99299.16;4947274;28;20502;-77
2023/07/11 09:28:20;;;;;;;7.20;6.60;;;;;;;35.23;nan;99294.78;4948643;28;20217;-77
2023/07/11 09:31:02;;;;;;;7.50;6.80;;;;;;;35.20;nan;99292.59;4949997;28;20584;-77
2023/07/11 09:33:31;;;;;;;8.13;7.43;;;;;;;35.22;nan;99298.63;4951490;28;20476;-77
2023/07/11 09:35:58;;;;;;;8.33;7.50;;;;;;;35.23;nan;99297.50;4950156;28;20573;-76
2023/07/11 09:38:30;;;;;;;8.00;7.20;;;;;;;35.20;nan;99285.22;4948961;28;20936;-77
2023/07/11 09:41:05;;;;;;;8.07;7.27;;;;;;;35.31;nan;99280.59;4950751;28;21024;-77
2023/07/11 09:43:31;;;;;;;8.20;7.43;;;;;;;35.44;nan;99280.09;4951752;28;20874;-76
2023/07/11 09:45:56;;;;;;;8.23;7.43;;;;;;;35.52;nan;99277.94;4951571;28;20532;-76
2023/07/11 09:48:27;;;;;;;8.73;7.83;;;;;;;35.63;nan;99277.72;4949796;28;20219;-77
2023/07/11 09:51:01;;;;;;;7.30;6.60;;;;;;;35.76;nan;99275.56;4947805;28;20226;-77
2023/07/11 09:53:29;;;;;;;7.97;7.27;;;;;;;35.92;nan;99279.94;4948690;28;21009;-77
2023/07/11 09:55:57;;;;;;;7.93;7.23;;;;;;;36.10;nan;99275.88;4948027;28;20488;-77
2023/07/11 09:58:22;;;;;;;8.00;7.40;;;;;;;36.17;nan;99265.47;4947836;28;20491;-77
2023/07/11 10:00:51;;;;;;;8.00;7.20;;;;;;;36.09;nan;99269.59;4948646;28;20890;-77
2023/07/11 10:03:21;;;;;;;8.07;7.27;;;;;;;36.05;nan;99273.09;4943297;28;20228;-77
2023/07/11 10:05:50;;;;;;;7.20;6.50;;;;;;;36.19;nan;99268.78;4943702;28;20465;-77
2023/07/11 10:08:26;;;;;;;7.50;6.90;;;;;;;36.30;nan;99264.09;4942533;28;20482;-77
2023/07/11 10:10:54;;;;;;;8.93;8.03;;;;;;;36.18;nan;99269.84;4943034;28;20536;-77
2023/07/11 10:13:21;;;;;;;12.00;7.07;;;;;;;36.28;nan;99260.81;4943158;28;20849;-77
2023/07/11 10:15:48;;;;;;;7.00;6.40;;;;;;;36.52;nan;99255.59;4944076;28;20995;-77
2023/07/11 10:18:28;;;;;;;6.37;5.77;;;;;;;36.62;nan;99255.59;4942099;28;20462;-77
2023/07/11 10:20:58;;;;;;;7.70;7.10;;;;;;;36.65;nan;99248.75;4941981;28;20491;-77
2023/07/11 10:23:25;;;;;;;7.30;6.53;;;;;;;36.69;nan;99247.91;4949315;28;21136;-77
2023/07/11 10:25:53;;;;;;;12.63;6.83;;;;;;;36.80;nan;99239.66;4952837;28;20505;-77
2023/07/11 10:28:27;;;;;;;7.00;6.40;;;;;;;36.84;nan;99241.56;4950527;28;20481;-77
2023/07/11 10:30:55;;;;;;;7.17;6.47;;;;;;;36.74;nan;99236.94;4946294;28;20469;-77
2023/07/11 10:33:29;;;;;;;7.57;6.97;;;;;;;36.82;nan;99232.00;4949894;28;20969;-77
2023/07/11 10:36:03;;;;;;;8.43;6.90;;;;;;;36.85;nan;99225.97;4950860;28;20482;-77
2023/07/11 10:38:59;;;;;;;6.93;6.30;;;;;;;36.97;nan;99223.69;4948739;28;20568;-77
2023/07/11 10:41:37;;;;;;;7.40;6.70;;;;;;;37.27;nan;99221.94;4950076;28;20948;-78
2023/07/11 10:44:04;;;;;;;8.80;6.90;;;;;;;37.47;nan;99213.59;4948777;28;20892;-78
2023/07/11 10:46:45;;;;;;;7.33;6.70;;;;;;;37.59;nan;99211.34;4948444;28;20484;-77
2023/07/11 10:49:23;;;;;;;10.60;7.40;;;;;;;37.66;nan;99212.94;4944051;28;20559;-78
2023/07/11 10:52:07;;;;;;;7.27;6.50;;;;;;;37.67;nan;99209.91;4949502;28;21066;-78
2023/07/11 10:54:49;;;;;;;6.80;6.20;;;;;;;37.66;nan;99204.72;4946797;28;20516;-78
2023/07/11 10:57:31;;;;;;;6.90;6.20;;;;;;;37.70;nan;99197.53;4944044;28;20466;-78
2023/07/11 10:59:57;;;;;;;7.57;6.93;;;;;;;37.66;nan;99191.84;4942598;28;20476;-78
2023/07/11 11:02:42;;;;;;;6.90;6.30;;;;;;;37.64;nan;99189.38;4933323;28;20474;-78
2023/07/11 11:05:24;;;;;;;7.67;6.93;;;;;;;37.61;nan;99180.91;4926546;28;20839;-78
2023/07/11 11:07:56;;;;;;;7.60;6.03;;;;;;;37.61;nan;99180.91;4927331;28;20468;-77
2023/07/11 11:10:47;;;;;;;6.97;6.23;;;;;;;37.65;30.50;99171.03;5070880;27;21841;-78
2023/07/11 11:13:15;;;;;;;6.23;5.67;;;;;;;37.74;30.37;99176.69;5063157;28;20451;-78
2023/07/11 11:16:02;;;;;;;11.73;6.10;;;;;;;37.90;30.01;99172.72;5062511;28;20646;-78
2023/07/11 11:19:10;;;;;;;6.60;5.97;;;;;;;37.88;29.83;99169.44;5062244;28;20447;-78
2023/07/11 11:22:13;;;;;;;6.67;6.13;;;;;;;37.87;30.05;99167.81;5061689;28;20557;-78
2023/07/11 11:25:00;;;;;;;8.03;6.30;;;;;;;37.95;29.60;99158.16;5046751;22;20766;-83
2023/07/11 11:27:47;;;;;;;9.60;6.67;;;;;;;37.91;29.96;99155.13;5016847;28;20512;-83
2023/07/11 11:30:25;;;;;;;6.83;6.20;;;;;;;37.89;29.44;99145.56;5025278;28;20657;-83
2023/07/11 11:33:36;;;;;;;6.53;5.77;;;;;;;37.90;29.49;99147.22;5023324;28;20465;-83
2023/07/11 11:36:21;;;;;;;6.73;6.17;;;;;;;37.88;29.44;99139.28;5041784;28;20551;-83
2023/07/11 11:38:52;;;;;;;7.20;6.17;;;;;;;37.92;29.12;99134.06;5031525;28;20452;-83
2023/07/11 11:41:22;;;;;;;6.37;5.83;;;;;;;37.93;29.01;99135.66;5024424;28;20549;-83
2023/07/11 11:43:50;;;;;;;7.70;6.60;;;;;;;37.94;29.41;99126.34;5025641;28;20530;-83
2023/07/11 11:46:17;;;;;;;6.60;6.10;;;;;;;37.97;29.54;99121.13;5028434;28;20547;-83
2023/07/11 11:48:44;;;;;;;7.03;6.40;;;;;;;37.98;29.84;99110.97;5028566;28;20998;-83
2023/07/11 11:51:14;;;;;;;7.57;6.97;;;;;;;37.88;29.91;99113.78;5025292;28;20700;-83
2023/07/11 11:53:46;;;;;;;6.80;6.17;;;;;;;37.74;30.21;99108.97;5026833;28;20456;-84
2023/07/11 11:56:20;;;;;;;7.63;6.70;;;;;;;37.76;30.40;99111.44;5015443;28;20954;-83
2023/07/11 11:59:02;;;;;;;6.97;6.20;;;;;;;37.69;30.57;99100.81;5026609;28;20545;-83